Time;durP1;ratioP1;P1;durP2;ratioP2;P2;SDS_P1;SDS_P2;PMS_P1;PMS_P2;Temp;Humidity;BMP_temperature;BMP_pressure;BME280_temperature;BME280_humidity;BME280_pressure;Samples;Min_cycle;Max_cycle;Signal;HPM_P1;HPM_P2
2023/12/03 00:00:56;;;;;;;10.63;5.80;;;;;;;;;;4997521;28;20247;-60
2023/12/03 00:03:23;;;;;;;6.87;5.20;;;;;;;;;;5004764;28;20216;-60
2023/12/03 00:05:50;;;;;;;8.03;5.20;;;;;;;;;;5004521;28;20212;-60
2023/12/03 00:08:17;;;;;;;9.70;6.13;;;;;;;;;;4997169;28;20301;-59
2023/12/03 00:10:44;;;;;;;10.27;5.57;;;;;;;;;;4988448;28;20264;-59
2023/12/03 00:13:12;;;;;;;8.67;5.47;;;;;;;;;;5005743;28;20741;-60
2023/12/03 00:15:39;;;;;;;9.67;5.40;;;;;;;;;;5006290;28;20220;-60
2023/12/03 00:18:06;;;;;;;7.23;5.47;;;;;;;;;;5002088;28;20208;-60
2023/12/03 00:20:33;;;;;;;11.13;6.37;;;;;;;;;;5007270;28;20212;-60
2023/12/03 00:23:00;;;;;;;10.30;5.80;;;;;;;;;;5004839;28;20212;-60
2023/12/03 00:25:27;;;;;;;7.73;5.30;;;;;;;;;;5020532;28;20232;-60
2023/12/03 00:27:54;;;;;;;9.43;5.87;;;;;;;;;;5008738;28;20247;-60
2023/12/03 00:30:23;;;;;;;8.60;5.80;;;;;;;;;;5016862;28;20269;-60
2023/12/03 00:32:50;;;;;;;10.37;5.80;;;;;;;;;;5009894;28;20216;-60
2023/12/03 00:35:17;;;;;;;9.70;5.67;;;;;;;;;;5014686;28;20206;-60
2023/12/03 00:37:44;;;;;;;7.80;5.53;;;;;;;;;;5010890;28;20212;-60
2023/12/03 00:40:11;;;;;;;8.93;5.97;;;;;;;;;;5016990;28;20730;-60
2023/12/03 00:42:38;;;;;;;11.23;6.23;;;;;;;;;;5006078;28;20209;-60
2023/12/03 00:45:06;;;;;;;8.03;5.53;;;;;;;;;;5006255;28;20717;-60
2023/12/03 00:47:34;;;;;;;10.50;5.53;;;;;;;;;;5006073;28;20236;-60
2023/12/03 00:50:01;;;;;;;10.53;6.00;;;;;;;;;;5006633;28;20209;-60
2023/12/03 00:52:28;;;;;;;8.40;5.90;;;;;;;;;;5005969;28;20303;-60
2023/12/03 00:54:55;;;;;;;10.20;6.00;;;;;;;;;;5006088;28;20752;-60
2023/12/03 00:57:22;;;;;;;9.77;6.07;;;;;;;;;;5006256;28;20208;-60
2023/12/03 00:59:49;;;;;;;8.57;5.67;;;;;;;;;;5005824;28;20599;-60
2023/12/03 01:02:16;;;;;;;10.67;6.13;;;;;;;;;;4991869;28;20217;-60
2023/12/03 01:04:45;;;;;;;9.07;5.53;;;;;;;;;;5005597;28;20216;-59
2023/12/03 01:07:12;;;;;;;9.97;5.57;;;;;;;;;;5006254;28;20235;-60
2023/12/03 01:09:39;;;;;;;9.67;6.10;;;;;;;;;;5006239;28;20254;-60
2023/12/03 01:12:06;;;;;;;9.80;6.23;;;;;;;;;;5001742;28;20212;-60
2023/12/03 01:14:33;;;;;;;10.90;6.03;;;;;;;;;;4990954;28;20227;-60
2023/12/03 01:17:00;;;;;;;7.73;5.47;;;;;;;;;;4999691;28;20748;-60
2023/12/03 01:19:27;;;;;;;8.00;5.30;;;;;;;;;;5006363;28;20261;-60
2023/12/03 01:21:56;;;;;;;8.80;5.73;;;;;;;;;;5008517;28;20666;-60
2023/12/03 01:24:23;;;;;;;10.97;5.53;;;;;;;;;;5005946;28;20257;-61
2023/12/03 01:26:50;;;;;;;8.23;5.87;;;;;;;;;;5005710;28;20271;-60
2023/12/03 01:29:17;;;;;;;10.93;6.37;;;;;;;;;;5006266;28;20259;-60
2023/12/03 01:31:44;;;;;;;8.50;5.37;;;;;;;;;;5005940;28;20211;-60
2023/12/03 01:34:11;;;;;;;8.20;5.33;;;;;;;;;;5000291;28;20202;-60
2023/12/03 01:36:38;;;;;;;9.87;6.13;;;;;;;;;;5007858;28;20205;-60
2023/12/03 01:39:07;;;;;;;8.00;5.90;;;;;;;;;;5007535;28;20213;-60
2023/12/03 01:41:34;;;;;;;11.37;6.20;;;;;;;;;;4991501;28;20219;-60
2023/12/03 01:44:01;;;;;;;12.07;5.47;;;;;;;;;;4999943;28;20212;-60
2023/12/03 01:46:28;;;;;;;11.80;6.00;;;;;;;;;;5009268;28;20256;-60
2023/12/03 01:48:55;;;;;;;8.70;5.43;;;;;;;;;;5009258;28;20724;-60
2023/12/03 01:51:22;;;;;;;10.93;6.30;;;;;;;;;;5009066;28;20670;-59
2023/12/03 01:53:50;;;;;;;9.20;5.93;;;;;;;;;;5009049;28;20223;-60
2023/12/03 01:56:18;;;;;;;10.47;6.50;;;;;;;;;;5008821;28;20211;-60
2023/12/03 01:58:45;;;;;;;10.83;7.07;;;;;;;;;;5008875;28;20269;-60
2023/12/03 02:01:12;;;;;;;12.53;6.67;;;;;;;;;;5004849;28;20715;-60
2023/12/03 02:03:39;;;;;;;11.50;6.37;;;;;;;;;;5008923;28;20228;-60
2023/12/03 02:06:07;;;;;;;10.47;5.90;;;;;;;;;;4992767;28;20220;-60
2023/12/03 02:08:34;;;;;;;9.70;5.97;;;;;;;;;;5008864;28;20231;-60
2023/12/03 02:11:01;;;;;;;9.43;5.90;;;;;;;;;;5007841;28;20207;-60
2023/12/03 02:13:31;;;;;;;10.73;6.57;;;;;;;;;;5008718;28;20207;-60
2023/12/03 02:15:58;;;;;;;13.20;6.97;;;;;;;;;;5008564;28;20207;-59
2023/12/03 02:18:25;;;;;;;9.47;5.53;;;;;;;;;;5008360;28;20682;-60
2023/12/03 02:20:52;;;;;;;10.53;6.03;;;;;;;;;;4996712;28;20275;-60
2023/12/03 02:23:21;;;;;;;10.93;6.40;;;;;;;;;;4990264;28;20726;-60
2023/12/03 02:25:50;;;;;;;11.03;6.60;;;;;;;;;;5009399;28;20224;-59
2023/12/03 02:28:17;;;;;;;10.00;5.87;;;;;;;;;;5008215;28;20303;-60
2023/12/03 02:30:44;;;;;;;10.57;6.53;;;;;;;;;;5008589;28;20223;-60
2023/12/03 02:33:12;;;;;;;12.20;7.13;;;;;;;;;;5008393;28;20647;-60
2023/12/03 02:35:39;;;;;;;13.07;7.17;;;;;;;;;;5008187;28;20235;-60
2023/12/03 02:38:06;;;;;;;12.00;6.67;;;;;;;;;;5018412;28;20205;-59
2023/12/03 02:40:34;;;;;;;13.63;7.03;;;;;;;;;;4992329;28;20220;-60
2023/12/03 02:43:01;;;;;;;12.77;6.63;;;;;;;;;;4988963;28;20212;-60
2023/12/03 02:48:32;;;;;;;13.47;6.47;;;;;;;;;;5007139;28;20258;-60
2023/12/03 02:50:59;;;;;;;12.67;6.53;;;;;;;;;;5006116;28;20212;-60
2023/12/03 02:53:26;;;;;;;10.80;6.60;;;;;;;;;;5000661;28;20275;-58
2023/12/03 02:55:54;;;;;;;10.90;6.80;;;;;;;;;;5007717;28;20208;-58
2023/12/03 02:58:21;;;;;;;11.03;7.03;;;;;;;;;;5007775;28;20267;-59
2023/12/03 03:00:48;;;;;;;11.50;6.57;;;;;;;;;;5006492;28;20255;-59
2023/12/03 03:03:15;;;;;;;14.53;6.63;;;;;;;;;;5007980;28;20251;-59
2023/12/03 03:05:42;;;;;;;13.87;7.30;;;;;;;;;;5007604;28;20617;-59
2023/12/03 03:08:09;;;;;;;12.60;7.10;;;;;;;;;;5006092;28;20228;-59
2023/12/03 03:10:36;;;;;;;12.43;6.73;;;;;;;;;;5006140;28;20291;-59
2023/12/03 03:13:04;;;;;;;11.57;6.70;;;;;;;;;;5007987;28;20638;-59
2023/12/03 03:15:31;;;;;;;14.73;7.43;;;;;;;;;;5007860;28;20267;-59
2023/12/03 03:21:02;;;;;;;12.10;6.97;;;;;;;;;;5004999;28;20215;-59
2023/12/03 03:23:29;;;;;;;12.30;7.20;;;;;;;;;;5002818;28;20746;-59
2023/12/03 03:25:56;;;;;;;13.50;7.77;;;;;;;;;;5006966;28;20227;-59
2023/12/03 03:28:24;;;;;;;13.80;7.57;;;;;;;;;;5007226;28;20248;-59
2023/12/03 03:30:52;;;;;;;14.23;7.73;;;;;;;;;;4997249;28;20295;-59
2023/12/03 03:33:19;;;;;;;14.17;7.53;;;;;;;;;;5023589;28;20212;-59
2023/12/03 03:35:46;;;;;;;16.23;8.30;;;;;;;;;;5009986;28;20211;-59
2023/12/03 03:38:13;;;;;;;14.77;8.07;;;;;;;;;;5008236;28;20893;-59
2023/12/03 03:40:40;;;;;;;14.17;7.63;;;;;;;;;;5008137;28;20207;-59
2023/12/03 03:43:07;;;;;;;18.43;8.93;;;;;;;;;;5008247;28;20224;-59
2023/12/03 03:45:36;;;;;;;15.37;7.70;;;;;;;;;;5007852;28;20311;-59
2023/12/03 03:48:03;;;;;;;15.17;7.60;;;;;;;;;;5007423;28;20225;-59
2023/12/03 03:50:30;;;;;;;12.63;8.13;;;;;;;;;;5007364;28;20857;-59
2023/12/03 03:52:57;;;;;;;12.83;7.80;;;;;;;;;;5007263;28;20214;-59
2023/12/03 03:55:24;;;;;;;15.90;8.70;;;;;;;;;;5007434;28;20263;-59
2023/12/03 03:57:51;;;;;;;15.97;8.37;;;;;;;;;;5007168;28;20216;-59
2023/12/03 04:00:19;;;;;;;14.63;7.80;;;;;;;;;;5021156;28;20668;-59
2023/12/03 04:02:47;;;;;;;14.87;8.70;;;;;;;;;;5026584;28;20215;-59
2023/12/03 04:05:15;;;;;;;16.50;8.20;;;;;;;;;;5026880;28;20238;-59
2023/12/03 04:07:42;;;;;;;16.33;8.77;;;;;;;;;;5026778;28;20289;-59
2023/12/03 04:10:10;;;;;;;17.07;8.43;;;;;;;;;;5008158;28;20478;-59
2023/12/03 04:12:37;;;;;;;15.17;8.43;;;;;;;;;;5007035;28;20345;-59
2023/12/03 04:15:05;;;;;;;17.70;8.57;;;;;;;;;;5006935;28;20212;-59
2023/12/03 04:17:32;;;;;;;14.63;7.53;;;;;;;;;;5006974;28;20208;-59
2023/12/03 04:20:01;;;;;;;21.20;8.70;;;;;;;;;;5005254;28;20212;-59
2023/12/03 04:22:28;;;;;;;15.83;8.07;;;;;;;;;;4987258;28;20220;-59
2023/12/03 04:24:55;;;;;;;17.83;9.00;;;;;;;;;;4987109;28;20565;-59
2023/12/03 04:27:22;;;;;;;19.90;9.57;;;;;;;;;;5010439;28;20239;-59
2023/12/03 04:29:49;;;;;;;19.87;8.83;;;;;;;;;;5007296;28;20638;-59
2023/12/03 04:32:16;;;;;;;15.57;8.70;;;;;;;;;;5006761;28;20222;-59
2023/12/03 04:34:43;;;;;;;17.23;9.20;;;;;;;;;;5006123;28;20210;-59
2023/12/03 04:37:11;;;;;;;16.63;8.30;;;;;;;;;;4988234;28;20236;-59
2023/12/03 04:39:39;;;;;;;17.93;8.57;;;;;;;;;;5004976;28;20207;-59
2023/12/03 04:42:07;;;;;;;17.30;9.13;;;;;;;;;;5026376;28;20305;-59
2023/12/03 04:44:34;;;;;;;15.67;7.97;;;;;;;;;;5026338;28;20298;-59
2023/12/03 04:47:01;;;;;;;16.67;8.50;;;;;;;;;;5008074;28;20258;-59
2023/12/03 04:49:28;;;;;;;18.87;8.87;;;;;;;;;;5006756;28;20232;-59
2023/12/03 04:51:55;;;;;;;17.20;8.37;;;;;;;;;;5006772;28;20632;-59
2023/12/03 04:54:23;;;;;;;16.93;8.70;;;;;;;;;;5014912;28;20225;-59
2023/12/03 04:56:50;;;;;;;15.37;7.63;;;;;;;;;;5026183;28;20222;-59
2023/12/03 04:59:17;;;;;;;20.47;9.17;;;;;;;;;;5008538;28;20585;-59
2023/12/03 05:01:45;;;;;;;15.27;7.83;;;;;;;;;;5006637;28;20298;-59
2023/12/03 05:04:12;;;;;;;19.43;9.47;;;;;;;;;;5006489;28;20537;-59
2023/12/03 05:06:40;;;;;;;17.33;8.20;;;;;;;;;;5006416;28;20626;-59
2023/12/03 05:09:07;;;;;;;19.47;8.60;;;;;;;;;;5006248;28;20277;-59
2023/12/03 05:11:39;;;;;;;17.97;9.27;;;;;;;;;;5006200;28;20207;-59
2023/12/03 05:14:06;;;;;;;15.10;8.20;;;;;;;;;;5008155;28;20698;-58
2023/12/03 05:16:33;;;;;;;19.30;8.83;;;;;;;;;;5010260;28;20215;-60
2023/12/03 05:19:00;;;;;;;18.33;8.97;;;;;;;;;;4995897;28;20203;-60
2023/12/03 05:21:27;;;;;;;21.03;9.37;;;;;;;;;;4998428;28;20310;-59
2023/12/03 05:23:55;;;;;;;19.63;8.80;;;;;;;;;;5010088;28;20233;-58
2023/12/03 05:26:22;;;;;;;15.90;8.67;;;;;;;;;;5008439;28;20247;-58
2023/12/03 05:28:50;;;;;;;18.73;8.87;;;;;;;;;;5000682;28;20277;-58
2023/12/03 05:31:17;;;;;;;19.37;9.03;;;;;;;;;;5003775;28;20219;-59
2023/12/03 05:33:44;;;;;;;18.07;8.50;;;;;;;;;;5003655;28;20208;-59
2023/12/03 05:36:21;;;;;;;19.33;9.97;;;;;;;;;;4998979;28;20207;-58
2023/12/03 05:38:48;;;;;;;18.90;9.43;;;;;;;;;;4990239;28;20235;-58
2023/12/03 05:41:15;;;;;;;19.57;8.53;;;;;;;;;;5006267;28;20211;-58
2023/12/03 05:43:42;;;;;;;15.07;8.33;;;;;;;;;;5009315;28;20262;-58
2023/12/03 05:46:10;;;;;;;19.10;9.23;;;;;;;;;;5009488;28;20762;-58
2023/12/03 05:48:37;;;;;;;16.33;9.03;;;;;;;;;;5013794;28;20231;-58
2023/12/03 05:51:09;;;;;;;19.80;9.00;;;;;;;;;;5008623;28;20213;-58
2023/12/03 05:53:36;;;;;;;16.30;8.23;;;;;;;;;;5009616;28;20211;-58
2023/12/03 05:56:03;;;;;;;21.73;8.63;;;;;;;;;;5009342;28;20211;-58
2023/12/03 05:58:30;;;;;;;17.97;9.47;;;;;;;;;;5009163;28;20563;-58
2023/12/03 06:00:57;;;;;;;18.43;8.20;;;;;;;;;;5007164;28;20203;-59
2023/12/03 06:03:25;;;;;;;20.17;8.80;;;;;;;;;;5008880;28;20214;-59
2023/12/03 06:05:52;;;;;;;16.83;8.27;;;;;;;;;;4998690;28;20218;-59
2023/12/03 06:08:19;;;;;;;23.17;8.97;;;;;;;;;;4999228;28;20233;-59
2023/12/03 06:10:46;;;;;;;19.33;8.43;;;;;;;;;;5008800;28;20932;-59
2023/12/03 06:13:13;;;;;;;17.57;8.70;;;;;;;;;;5007257;28;20677;-59
2023/12/03 06:15:40;;;;;;;19.43;8.20;;;;;;;;;;5008461;28;20210;-59
2023/12/03 06:18:09;;;;;;;18.63;8.80;;;;;;;;;;5008718;28;20632;-58
2023/12/03 06:20:37;;;;;;;19.30;9.47;;;;;;;;;;5008265;28;20217;-59
2023/12/03 06:23:05;;;;;;;18.57;9.73;;;;;;;;;;5008491;28;20760;-59
2023/12/03 06:25:32;;;;;;;22.93;9.43;;;;;;;;;;5007877;28;20226;-59
2023/12/03 06:27:59;;;;;;;22.50;9.53;;;;;;;;;;5008252;28;20250;-60
2023/12/03 06:30:26;;;;;;;19.50;9.27;;;;;;;;;;5008298;28;20248;-59
2023/12/03 06:32:53;;;;;;;23.57;9.47;;;;;;;;;;5007953;28;20214;-60
2023/12/03 06:35:20;;;;;;;20.87;8.83;;;;;;;;;;5007889;28;20202;-59
2023/12/03 06:37:48;;;;;;;23.20;9.40;;;;;;;;;;5008038;28;20259;-60
2023/12/03 06:40:16;;;;;;;21.30;9.27;;;;;;;;;;5003671;28;20202;-60
2023/12/03 06:42:43;;;;;;;21.40;9.30;;;;;;;;;;4997509;28;20241;-60
2023/12/03 06:45:10;;;;;;;20.03;8.87;;;;;;;;;;5005363;28;20236;-59
2023/12/03 06:47:37;;;;;;;18.93;9.60;;;;;;;;;;5009825;28;20220;-59
2023/12/03 06:50:05;;;;;;;20.83;9.07;;;;;;;;;;4995403;28;20233;-60
2023/12/03 06:52:32;;;;;;;21.60;9.33;;;;;;;;;;5007308;28;20201;-60
2023/12/03 06:55:00;;;;;;;18.57;9.13;;;;;;;;;;5007674;28;20209;-58
2023/12/03 06:57:27;;;;;;;26.00;9.77;;;;;;;;;;5007545;28;20217;-59
2023/12/03 06:59:54;;;;;;;24.47;8.77;;;;;;;;;;5007818;28;20203;-59
2023/12/03 07:02:21;;;;;;;22.30;9.70;;;;;;;;;;5007488;28;20207;-59
2023/12/03 07:04:48;;;;;;;25.33;9.77;;;;;;;;;;4993565;28;20209;-59
2023/12/03 07:07:15;;;;;;;26.57;10.83;;;;;;;;;;4989638;28;20711;-59
2023/12/03 07:09:42;;;;;;;20.70;8.43;;;;;;;;;;4998295;28;20225;-60
2023/12/03 07:12:11;;;;;;;21.13;9.37;;;;;;;;;;5005551;28;20201;-59
2023/12/03 07:14:38;;;;;;;22.67;9.73;;;;;;;;;;5007598;28;20308;-59
2023/12/03 07:17:06;;;;;;;21.20;9.40;;;;;;;;;;5007100;28;20732;-60
2023/12/03 07:19:33;;;;;;;20.17;9.13;;;;;;;;;;5007468;28;20233;-60
2023/12/03 07:22:00;;;;;;;20.80;9.47;;;;;;;;;;5007647;28;20659;-59
2023/12/03 07:24:27;;;;;;;18.53;8.93;;;;;;;;;;5002599;28;20226;-60
2023/12/03 07:26:54;;;;;;;19.43;9.03;;;;;;;;;;5009016;28;20819;-59
2023/12/03 07:29:22;;;;;;;19.47;9.40;;;;;;;;;;5008227;28;20236;-59
2023/12/03 07:31:49;;;;;;;23.10;9.30;;;;;;;;;;5005380;28;20220;-60
2023/12/03 07:34:17;;;;;;;20.00;9.13;;;;;;;;;;5008005;28;20219;-59
2023/12/03 07:36:44;;;;;;;26.93;9.60;;;;;;;;;;4997644;28;20730;-60
2023/12/03 07:39:11;;;;;;;22.47;9.40;;;;;;;;;;4990444;28;20206;-59
2023/12/03 07:41:38;;;;;;;22.77;9.93;;;;;;;;;;4988889;28;20222;-60
2023/12/03 07:44:05;;;;;;;21.27;9.40;;;;;;;;;;5002569;28;20213;-60
2023/12/03 07:46:34;;;;;;;21.13;9.37;;;;;;;;;;5006889;28;20232;-60
2023/12/03 07:49:01;;;;;;;20.40;9.43;;;;;;;;;;5014953;28;20233;-61
2023/12/03 07:51:29;;;;;;;19.13;9.13;;;;;;;;;;5018277;28;20936;-62
2023/12/03 07:53:56;;;;;;;18.30;9.33;;;;;;;;;;5010083;28;20569;-62
2023/12/03 07:56:25;;;;;;;27.60;9.40;;;;;;;;;;5026434;28;20618;-60
2023/12/03 07:58:52;;;;;;;17.50;8.57;;;;;;;;;;5016015;28;20286;-61
2023/12/03 08:01:21;;;;;;;19.27;9.40;;;;;;;;;;5014114;28;20597;-60
2023/12/03 08:06:53;;;;;;;22.53;9.40;;;;;;;;;;4999605;28;20228;-60
2023/12/03 08:09:20;;;;;;;21.90;10.00;;;;;;;;;;5011671;28;20232;-60
2023/12/03 08:11:47;;;;;;;18.37;8.63;;;;;;;;;;5007771;28;20204;-60
2023/12/03 08:14:14;;;;;;;20.17;8.77;;;;;;;;;;5004254;28;20539;-60
2023/12/03 08:16:41;;;;;;;22.37;10.37;;;;;;;;;;5003300;28;20708;-60
2023/12/03 08:22:12;;;;;;;26.10;10.37;;;;;;;;;;5006619;28;21047;-60
2023/12/03 08:24:39;;;;;;;22.90;9.97;;;;;;;;;;5007434;28;20278;-60
2023/12/03 08:27:06;;;;;;;26.57;10.83;;;;;;;;;;5007247;28;20286;-61
2023/12/03 08:29:33;;;;;;;27.20;11.37;;;;;;;;;;5012877;28;20231;-60
2023/12/03 08:32:00;;;;;;;21.87;9.33;;;;;;;;;;5015203;28;20219;-60
2023/12/03 08:34:28;;;;;;;48.17;16.80;;;;;;;;;;5009310;28;20216;-60
2023/12/03 08:36:56;;;;;;;20.40;9.07;;;;;;;;;;5003094;28;20238;-60
2023/12/03 08:39:24;;;;;;;20.83;9.27;;;;;;;;;;5007364;28;20211;-60
2023/12/03 08:41:51;;;;;;;21.00;9.60;;;;;;;;;;5004656;28;20278;-60
2023/12/03 08:44:18;;;;;;;20.17;8.97;;;;;;;;;;5005531;28;20223;-60
2023/12/03 08:46:46;;;;;;;18.23;8.67;;;;;;;;;;5005889;28;20447;-60
2023/12/03 08:49:13;;;;;;;22.97;9.83;;;;;;;;;;4990819;28;20240;-59
2023/12/03 08:51:40;;;;;;;16.83;8.90;;;;;;;;;;4998829;28;20258;-59
2023/12/03 08:54:07;;;;;;;18.87;10.07;;;;;;;;;;5009345;28;20632;-59
2023/12/03 08:56:35;;;;;;;21.60;9.73;;;;;;;;;;5008280;28;20227;-60
2023/12/03 08:59:02;;;;;;;23.27;9.47;;;;;;;;;;5004992;28;20204;-59
2023/12/03 09:01:31;;;;;;;21.20;9.67;;;;;;;;;;5008939;28;20213;-60
2023/12/03 09:03:58;;;;;;;19.80;9.43;;;;;;;;;;4995709;28;20686;-60
2023/12/03 09:06:25;;;;;;;18.07;8.43;;;;;;;;;;5007850;28;20216;-60
2023/12/03 09:08:52;;;;;;;25.27;10.77;;;;;;;;;;5009554;28;20228;-60
2023/12/03 09:11:19;;;;;;;23.47;10.27;;;;;;;;;;5009843;28;20683;-60
2023/12/03 09:13:47;;;;;;;18.47;8.60;;;;;;;;;;5000858;28;20217;-60
2023/12/03 09:16:14;;;;;;;21.93;10.27;;;;;;;;;;5009142;28;20304;-60
2023/12/03 09:18:41;;;;;;;22.50;10.27;;;;;;;;;;5009643;28;20209;-60
2023/12/03 09:21:11;;;;;;;18.97;9.80;;;;;;;;;;5009845;28;20212;-61
2023/12/03 09:23:38;;;;;;;19.77;10.80;;;;;;;;;;5009629;28;20224;-61
2023/12/03 09:26:05;;;;;;;21.30;9.90;;;;;;;;;;5004474;28;20347;-61
2023/12/03 09:28:34;;;;;;;23.30;10.33;;;;;;;;;;5009271;28;20205;-60
2023/12/03 09:31:02;;;;;;;18.87;9.80;;;;;;;;;;5007889;28;20200;-60
2023/12/03 09:33:30;;;;;;;20.47;10.03;;;;;;;;;;5009189;28;20230;-60
2023/12/03 09:35:57;;;;;;;18.47;9.83;;;;;;;;;;5009211;28;20238;-62
2023/12/03 09:38:24;;;;;;;19.47;10.70;;;;;;;;;;5002152;28;20213;-61
2023/12/03 09:40:54;;;;;;;21.13;10.37;;;;;;;;;;5006157;28;20220;-60
2023/12/03 09:43:22;;;;;;;22.33;10.60;;;;;;;;;;5006736;28;20236;-60
2023/12/03 09:45:49;;;;;;;14.47;8.33;;;;;;;;;;4998691;28;20218;-61
2023/12/03 09:48:19;;;;;;;20.80;10.30;;;;;;;;;;4990204;28;20213;-60
2023/12/03 09:50:46;;;;;;;18.23;9.57;;;;;;;;;;4997439;28;20225;-59
2023/12/03 09:53:13;;;;;;;17.13;9.83;;;;;;;;;;5009427;28;20906;-59
2023/12/03 09:55:41;;;;;;;18.37;10.20;;;;;;;;;;4999463;28;20608;-60
2023/12/03 09:58:11;;;;;;;23.53;9.13;;;;;;;;;;4989922;28;20233;-65
2023/12/03 10:03:42;;;;;;;18.27;9.77;;;;;;;;;;4985919;28;20223;-60
2023/12/03 10:06:11;;;;;;;20.43;10.57;;;;;;;;;;5001858;28;20209;-61
2023/12/03 10:08:38;;;;;;;18.97;10.13;;;;;;;;;;5009412;28;20292;-60
2023/12/03 10:11:06;;;;;;;17.57;9.97;;;;;;;;;;5008822;28;20236;-61
2023/12/03 10:13:34;;;;;;;22.17;10.30;;;;;;;;;;5008462;28;20232;-60
2023/12/03 10:16:01;;;;;;;17.60;9.90;;;;;;;;;;5008533;28;20251;-61
2023/12/03 10:18:28;;;;;;;20.33;10.83;;;;;;;;;;5008280;28;20255;-61
2023/12/03 10:21:09;;;;;;;19.23;10.87;;;;;;;;;;5001774;28;20213;-61
2023/12/03 10:23:36;;;;;;;22.27;11.07;;;;;;;;;;5002505;28;20229;-61
2023/12/03 10:26:11;;;;;;;21.20;10.60;;;;;;;;;;5008223;28;20454;-61
2023/12/03 10:28:38;;;;;;;20.20;11.40;;;;;;;;;;5008688;28;20205;-61
2023/12/03 10:31:05;;;;;;;18.50;10.63;;;;;;;;;;5008537;28;20287;-61
2023/12/03 10:33:33;;;;;;;17.53;10.30;;;;;;;;;;5008512;28;20607;-60
2023/12/03 10:36:02;;;;;;;16.00;9.60;;;;;;;;;;5008806;28;20213;-61
2023/12/03 10:38:36;;;;;;;17.40;9.93;;;;;;;;;;5008625;28;20308;-60
2023/12/03 10:41:03;;;;;;;18.80;10.47;;;;;;;;;;5008114;28;20303;-61
2023/12/03 10:43:30;;;;;;;19.77;10.70;;;;;;;;;;5005183;28;20453;-61
2023/12/03 10:45:57;;;;;;;19.47;10.47;;;;;;;;;;5008254;28;20284;-60
2023/12/03 10:48:27;;;;;;;17.50;10.50;;;;;;;;;;5008132;28;20221;-60
2023/12/03 10:50:55;;;;;;;22.93;12.10;;;;;;;;;;5007776;28;20221;-61
2023/12/03 10:53:22;;;;;;;20.10;11.43;;;;;;;;;;5006411;28;20253;-60
2023/12/03 10:55:51;;;;;;;15.77;9.70;;;;;;;;;;5007311;28;20205;-61
2023/12/03 10:58:19;;;;;;;20.20;10.70;;;;;;;;;;5008144;28;20298;-60
2023/12/03 11:00:51;;;;;;;19.37;11.27;;;;;;;;;;5007708;28;20198;-60
2023/12/03 11:03:23;;;;;;;17.90;10.50;;;;;;;;;;5007303;28;20682;-62
2023/12/03 11:05:52;;;;;;;19.53;10.03;;;;;;;;;;4993390;28;20210;-60
2023/12/03 11:08:20;;;;;;;20.03;10.60;;;;;;;;;;4988541;28;20217;-60
2023/12/03 11:10:47;;;;;;;20.23;10.67;;;;;;;;;;4988377;28;20229;-60
2023/12/03 11:13:18;;;;;;;16.77;9.47;;;;;;;;;;4992699;28;20209;-60
2023/12/03 11:15:45;;;;;;;17.73;10.00;;;;;;;;;;5001393;28;20212;-60
2023/12/03 11:18:13;;;;;;;18.37;10.13;;;;;;;;;;5007962;28;20668;-60
2023/12/03 11:20:42;;;;;;;21.30;10.03;;;;;;;;;;5008013;28;20209;-60
2023/12/03 11:23:26;;;;;;;18.67;9.70;;;;;;;;;;5007876;28;20201;-60
2023/12/03 11:29:05;;;;;;;19.13;10.10;;;;;;;;;;4986643;28;20227;-60
2023/12/03 11:31:33;;;;;;;18.17;9.53;;;;;;;;;;5000367;28;20331;-61
2023/12/03 11:34:31;;;;;;;15.77;8.90;;;;;;;;;;5004692;28;20212;-60
2023/12/03 11:36:58;;;;;;;17.87;9.80;;;;;;;;;;4996134;28;20295;-60
2023/12/03 11:39:26;;;;;;;19.63;10.47;;;;;;;;;;5006682;28;20397;-60
2023/12/03 11:41:59;;;;;;;18.03;9.93;;;;;;;;;;5006685;28;20226;-60
2023/12/03 11:44:28;;;;;;;19.73;10.17;;;;;;;;;;5006151;28;20217;-60
2023/12/03 11:47:02;;;;;;;15.43;9.50;;;;;;;;;;5006450;28;20812;-61
2023/12/03 11:49:29;;;;;;;18.97;9.67;;;;;;;;;;5003482;28;20647;-61
2023/12/03 11:51:56;;;;;;;17.13;8.97;;;;;;;;;;5006079;28;20220;-61
2023/12/03 11:54:26;;;;;;;17.17;9.67;;;;;;;;;;5006276;28;20344;-60
2023/12/03 11:56:54;;;;;;;17.37;9.43;;;;;;;;;;5006749;28;20330;-61
2023/12/03 11:59:21;;;;;;;17.20;8.93;;;;;;;;;;5006537;28;20287;-60
2023/12/03 12:01:50;;;;;;;36.57;15.17;;;;;;;;;;5005992;28;20234;-60
2023/12/03 12:04:21;;;;;;;26.00;12.13;;;;;;;;;;5005879;28;20216;-60
2023/12/03 12:06:48;;;;;;;19.13;10.00;;;;;;;;;;5006199;28;20215;-61
2023/12/03 12:09:21;;;;;;;16.10;8.63;;;;;;;;;;5006264;28;20215;-60
2023/12/03 12:11:48;;;;;;;17.60;9.23;;;;;;;;;;5004271;28;20535;-60
2023/12/03 12:14:16;;;;;;;15.40;8.97;;;;;;;;;;5005620;28;20325;-60
2023/12/03 12:16:44;;;;;;;16.17;9.60;;;;;;;;;;5006422;28;20315;-60
2023/12/03 12:19:12;;;;;;;17.37;9.13;;;;;;;;;;5006188;28;20278;-60
2023/12/03 12:21:51;;;;;;;14.83;9.43;;;;;;;;;;5005480;28;20198;-60
2023/12/03 12:24:18;;;;;;;15.50;8.67;;;;;;;;;;5004863;28;20332;-60
2023/12/03 12:29:50;;;;;;;16.07;8.60;;;;;;;;;;4993641;28;20435;-60
2023/12/03 12:32:17;;;;;;;21.43;9.63;;;;;;;;;;5005564;28;20267;-61
2023/12/03 12:34:47;;;;;;;15.90;8.33;;;;;;;;;;5005659;28;20208;-60
2023/12/03 12:37:14;;;;;;;21.23;9.27;;;;;;;;;;5005853;28;20638;-60
2023/12/03 12:39:41;;;;;;;17.10;9.37;;;;;;;;;;5005519;28;20204;-60
2023/12/03 12:42:08;;;;;;;17.83;9.30;;;;;;;;;;4999586;28;20237;-60
2023/12/03 12:44:38;;;;;;;14.70;8.37;;;;;;;;;;5002823;28;20213;-60
2023/12/03 12:47:06;;;;;;;16.70;8.97;;;;;;;;;;5005821;28;20205;-60
2023/12/03 12:49:33;;;;;;;19.97;8.90;;;;;;;;;;5005617;28;20213;-60
2023/12/03 12:52:12;;;;;;;15.90;8.83;;;;;;;;;;5003919;28;20252;-60
2023/12/03 12:54:46;;;;;;;16.60;8.73;;;;;;;;;;5000192;28;20205;-60
2023/12/03 12:57:13;;;;;;;16.40;8.87;;;;;;;;;;5005803;28;20374;-60
2023/12/03 12:59:40;;;;;;;17.50;8.83;;;;;;;;;;5005687;28;20282;-60
2023/12/03 13:02:07;;;;;;;15.83;8.47;;;;;;;;;;5000198;28;20295;-60
2023/12/03 13:04:34;;;;;;;18.57;9.67;;;;;;;;;;4987147;28;20267;-60
2023/12/03 13:07:02;;;;;;;15.10;9.00;;;;;;;;;;5002625;28;20594;-60
2023/12/03 13:09:30;;;;;;;16.47;8.73;;;;;;;;;;5005605;28;20295;-60
2023/12/03 13:11:58;;;;;;;15.63;8.33;;;;;;;;;;5005331;28;20237;-60
2023/12/03 13:14:25;;;;;;;19.03;10.40;;;;;;;;;;5004733;28;20209;-60
2023/12/03 13:16:52;;;;;;;16.13;8.67;;;;;;;;;;5004011;28;20209;-60
2023/12/03 13:19:20;;;;;;;18.50;9.43;;;;;;;;;;5005373;28;20315;-60
2023/12/03 13:21:47;;;;;;;17.27;8.43;;;;;;;;;;5005216;28;20209;-60
2023/12/03 13:24:15;;;;;;;16.67;8.60;;;;;;;;;;5004701;28;20869;-60
2023/12/03 13:26:44;;;;;;;16.27;8.70;;;;;;;;;;5005280;28;20232;-60
2023/12/03 13:29:11;;;;;;;11.47;6.00;;;;;;;;;;5002793;28;20749;-60
2023/12/03 13:31:38;;;;;;;14.10;8.50;;;;;;;;;;5002504;28;20229;-60
2023/12/03 13:34:05;;;;;;;18.00;8.40;;;;;;;;;;5005102;28;20730;-60
2023/12/03 13:36:32;;;;;;;15.13;8.63;;;;;;;;;;5008457;28;20217;-59
2023/12/03 13:38:59;;;;;;;16.10;8.57;;;;;;;;;;5008975;28;20264;-59
2023/12/03 13:41:29;;;;;;;17.23;8.37;;;;;;;;;;4992202;28;20205;-60
2023/12/03 13:43:58;;;;;;;15.40;7.87;;;;;;;;;;5007518;28;20225;-59
2023/12/03 13:46:26;;;;;;;21.60;9.20;;;;;;;;;;5009104;28;20586;-60
2023/12/03 13:48:53;;;;;;;16.37;8.63;;;;;;;;;;5009165;28;20267;-59
2023/12/03 13:51:20;;;;;;;17.77;9.30;;;;;;;;;;4996109;28;20233;-60
2023/12/03 13:53:48;;;;;;;16.57;8.57;;;;;;;;;;5007758;28;20706;-59
2023/12/03 13:56:15;;;;;;;18.13;9.20;;;;;;;;;;5008482;28;20201;-60
2023/12/03 13:58:42;;;;;;;18.30;9.67;;;;;;;;;;5008739;28;20572;-60
2023/12/03 14:01:10;;;;;;;21.70;9.00;;;;;;;;;;5008095;28;20201;-60
2023/12/03 14:03:38;;;;;;;17.77;7.93;;;;;;;;;;5006329;28;20209;-60
2023/12/03 14:06:05;;;;;;;21.90;9.40;;;;;;;;;;5008381;28;20285;-60
2023/12/03 14:08:33;;;;;;;15.37;7.60;;;;;;;;;;4996710;28;20245;-60
2023/12/03 14:11:00;;;;;;;20.10;9.40;;;;;;;;;;4988871;28;20364;-60
2023/12/03 14:13:27;;;;;;;18.20;9.10;;;;;;;;;;4997039;28;20848;-61
2023/12/03 14:15:56;;;;;;;16.03;8.93;;;;;;;;;;5008023;28;20663;-60
2023/12/03 14:18:24;;;;;;;17.03;8.00;;;;;;;;;;5008408;28;20209;-60
2023/12/03 14:20:51;;;;;;;19.67;9.33;;;;;;;;;;5006508;28;20699;-60
2023/12/03 14:23:18;;;;;;;18.20;8.70;;;;;;;;;;5007243;28;20209;-60
2023/12/03 14:25:45;;;;;;;17.87;9.17;;;;;;;;;;5007743;28;20225;-60
2023/12/03 14:28:12;;;;;;;17.57;8.53;;;;;;;;;;5008153;28;20671;-60
2023/12/03 14:30:39;;;;;;;20.03;9.73;;;;;;;;;;5007925;28;20229;-60
2023/12/03 14:33:10;;;;;;;15.80;8.97;;;;;;;;;;5008063;28;20216;-60
2023/12/03 14:35:38;;;;;;;17.57;9.83;;;;;;;;;;5007689;28;20208;-60
2023/12/03 14:38:05;;;;;;;20.27;9.70;;;;;;;;;;5004654;28;20307;-60
2023/12/03 14:40:33;;;;;;;15.53;8.00;;;;;;;;;;4987793;28;20201;-60
2023/12/03 14:43:00;;;;;;;14.90;7.70;;;;;;;;;;5005307;28;20773;-60
2023/12/03 14:45:27;;;;;;;16.97;8.43;;;;;;;;;;5005664;28;20223;-60
2023/12/03 14:47:54;;;;;;;20.07;9.27;;;;;;;;;;5007403;28;20690;-60
2023/12/03 14:50:21;;;;;;;25.33;11.10;;;;;;;;;;5005764;28;20207;-61
2023/12/03 14:52:50;;;;;;;15.47;9.33;;;;;;;;;;5007634;28;20221;-61